Time;durP1;ratioP1;P1;durP2;ratioP2;P2;SDS_P1;SDS_P2;PMS_P1;PMS_P2;Temp;Humidity;BMP_temperature;BMP_pressure;BME280_temperature;BME280_humidity;BME280_pressure;Samples;Min_cycle;Max_cycle;Signal;HPM_P1;HPM_P2
2022/06/29 00:00:08;;;;;;;3.35;1.92;;;;;;;;;;5039898;28;20732;-74
2022/06/29 00:02:35;;;;;;;2.60;1.70;;;;;;;;;;5040407;28;20509;-73
2022/06/29 00:05:03;;;;;;;2.10;1.70;;;;;;;;;;5040235;28;20435;-73
2022/06/29 00:07:30;;;;;;;2.07;1.87;;;;;;;;;;5050703;28;20586;-73
2022/06/29 00:09:59;;;;;;;2.40;1.90;;;;;;;;;;5040352;28;20515;-73
2022/06/29 00:12:26;;;;;;;1.90;1.70;;;;;;;;;;5039856;28;20466;-75
2022/06/29 00:14:55;;;;;;;2.42;2.00;;;;;;;;;;5037027;28;20466;-76
2022/06/29 00:17:23;;;;;;;1.75;1.65;;;;;;;;;;5040238;28;20472;-75
2022/06/29 00:19:50;;;;;;;2.50;1.90;;;;;;;;;;5037817;28;20475;-75
2022/06/29 00:22:17;;;;;;;3.08;2.10;;;;;;;;;;5041318;28;20446;-75
2022/06/29 00:24:44;;;;;;;2.03;1.80;;;;;;;;;;5036258;28;20491;-74
2022/06/29 00:27:12;;;;;;;2.72;2.08;;;;;;;;;;5041143;28;20467;-75
2022/06/29 00:29:40;;;;;;;2.30;2.10;;;;;;;;;;5041716;28;20489;-73
2022/06/29 00:32:07;;;;;;;2.97;2.20;;;;;;;;;;5044061;28;20439;-73
2022/06/29 00:34:34;;;;;;;2.20;2.00;;;;;;;;;;5038951;28;20578;-73
2022/06/29 00:37:01;;;;;;;2.35;2.13;;;;;;;;;;5041688;28;21524;-73
2022/06/29 00:39:29;;;;;;;2.92;2.28;;;;;;;;;;5043301;28;20434;-74
2022/06/29 00:41:56;;;;;;;2.83;2.38;;;;;;;;;;5043060;28;20495;-75
2022/06/29 00:44:24;;;;;;;2.63;2.10;;;;;;;;;;5039290;28;20459;-73
2022/06/29 00:46:53;;;;;;;2.40;2.20;;;;;;;;;;5041452;28;20491;-75
2022/06/29 00:49:21;;;;;;;2.65;2.45;;;;;;;;;;5038839;28;20442;-73
2022/06/29 00:51:49;;;;;;;2.87;2.40;;;;;;;;;;5038963;28;20514;-73
2022/06/29 00:54:19;;;;;;;2.88;2.10;;;;;;;;;;5036585;28;20494;-73
2022/06/29 00:56:48;;;;;;;2.40;2.20;;;;;;;;;;5038284;28;20480;-73
2022/06/29 00:59:23;;;;;;;2.30;2.10;;;;;;;;;;5037855;28;20498;-75
2022/06/29 01:01:52;;;;;;;2.53;2.33;;;;;;;;;;5039108;28;20457;-75
2022/06/29 01:04:19;;;;;;;3.60;2.60;;;;;;;;;;5034569;28;20517;-75
2022/06/29 01:06:46;;;;;;;2.70;2.00;;;;;;;;;;5038130;28;20435;-75
2022/06/29 01:09:14;;;;;;;2.60;2.30;;;;;;;;;;5030751;28;20980;-75
2022/06/29 01:11:41;;;;;;;3.13;2.37;;;;;;;;;;5027357;28;20529;-75
2022/06/29 01:14:08;;;;;;;2.78;2.53;;;;;;;;;;5028299;28;20481;-75
2022/06/29 01:16:35;;;;;;;2.88;2.58;;;;;;;;;;5026594;28;20439;-75
2022/06/29 01:19:04;;;;;;;3.28;2.53;;;;;;;;;;5027773;28;20491;-75
2022/06/29 01:21:31;;;;;;;2.60;2.40;;;;;;;;;;5026409;28;20534;-75
2022/06/29 01:24:00;;;;;;;2.50;2.30;;;;;;;;;;5023243;28;20612;-74
2022/06/29 01:26:27;;;;;;;2.90;2.40;;;;;;;;;;5024576;28;20431;-75
2022/06/29 01:28:54;;;;;;;2.50;2.30;;;;;;;;;;5023487;28;20435;-75
2022/06/29 01:31:21;;;;;;;3.33;2.90;;;;;;;;;;5025286;28;20487;-75
2022/06/29 01:33:49;;;;;;;3.30;2.40;;;;;;;;;;5022427;28;20472;-75
2022/06/29 01:36:17;;;;;;;3.00;2.80;;;;;;;;;;5026764;28;20431;-75
2022/06/29 01:38:45;;;;;;;3.20;2.17;;;;;;;;;;5027951;28;20513;-75
2022/06/29 01:41:14;;;;;;;3.28;2.30;;;;;;;;;;5024526;28;20437;-74
2022/06/29 01:43:41;;;;;;;3.22;2.40;;;;;;;;;;5025317;28;20439;-75
2022/06/29 01:46:08;;;;;;;3.20;2.70;;;;;;;;;;5027286;28;20872;-75
2022/06/29 01:48:35;;;;;;;2.60;2.40;;;;;;;;;;5024334;28;21145;-75
2022/06/29 01:51:03;;;;;;;2.60;2.40;;;;;;;;;;5029811;28;20426;-75
2022/06/29 01:53:30;;;;;;;2.60;2.20;;;;;;;;;;5028820;28;20925;-75
2022/06/29 01:55:57;;;;;;;2.33;2.13;;;;;;;;;;5031964;28;20449;-75
2022/06/29 01:58:26;;;;;;;2.78;2.33;;;;;;;;;;5032655;28;20502;-75
2022/06/29 02:00:53;;;;;;;3.10;2.60;;;;;;;;;;5037709;28;20478;-74
2022/06/29 02:03:20;;;;;;;2.40;2.20;;;;;;;;;;5033811;28;20502;-75
2022/06/29 02:05:47;;;;;;;2.88;2.10;;;;;;;;;;5033917;28;20458;-75
2022/06/29 02:08:14;;;;;;;2.22;2.13;;;;;;;;;;5035365;28;20449;-74
2022/06/29 02:10:41;;;;;;;2.58;2.38;;;;;;;;;;5046015;28;20486;-74
2022/06/29 02:13:08;;;;;;;2.80;2.60;;;;;;;;;;5044738;28;20441;-74
2022/06/29 02:15:37;;;;;;;3.20;2.60;;;;;;;;;;5041855;28;20435;-74
2022/06/29 02:18:04;;;;;;;3.30;2.60;;;;;;;;;;5041358;28;20467;-75
2022/06/29 02:20:32;;;;;;;2.65;2.30;;;;;;;;;;5041497;28;20537;-74
2022/06/29 02:22:59;;;;;;;2.90;2.50;;;;;;;;;;5033708;28;20852;-74
2022/06/29 02:25:26;;;;;;;2.50;2.30;;;;;;;;;;5033488;28;20445;-74
2022/06/29 02:27:53;;;;;;;2.50;2.30;;;;;;;;;;5033781;28;20491;-75
2022/06/29 02:34:43;;;;;;;3.17;2.45;;;;;;;;;;5040298;28;20475;-74
2022/06/29 02:35:53;;;;;;;2.72;2.40;;;;;;;;;;5039030;28;21293;-74
2022/06/29 02:38:20;;;;;;;2.70;2.50;;;;;;;;;;5036620;28;20529;-75
2022/06/29 02:40:48;;;;;;;3.00;2.70;;;;;;;;;;5039811;28;20437;-75
2022/06/29 02:43:15;;;;;;;2.42;2.22;;;;;;;;;;5040282;28;20498;-75
2022/06/29 02:45:42;;;;;;;2.75;2.55;;;;;;;;;;5040930;28;20512;-75
2022/06/29 02:48:10;;;;;;;2.38;2.10;;;;;;;;;;5038850;28;20510;-74
2022/06/29 02:50:38;;;;;;;2.75;2.55;;;;;;;;;;5021753;28;20439;-67
2022/06/29 02:53:05;;;;;;;2.50;2.30;;;;;;;;;;5020763;28;20487;-68
2022/06/29 02:55:32;;;;;;;3.72;2.20;;;;;;;;;;5021997;28;20441;-67
2022/06/29 02:57:59;;;;;;;3.17;2.45;;;;;;;;;;5022960;28;20434;-67
2022/06/29 03:00:26;;;;;;;3.28;2.45;;;;;;;;;;5021182;28;20435;-67
2022/06/29 03:02:53;;;;;;;2.40;2.20;;;;;;;;;;5022454;28;20780;-67
2022/06/29 03:05:21;;;;;;;3.30;2.70;;;;;;;;;;5015957;28;20506;-69
2022/06/29 03:07:49;;;;;;;2.80;2.60;;;;;;;;;;5019908;28;20460;-67
2022/06/29 03:10:16;;;;;;;2.47;2.28;;;;;;;;;;5018406;28;20442;-68
2022/06/29 03:12:43;;;;;;;2.50;2.20;;;;;;;;;;5021026;28;20549;-68
2022/06/29 03:15:10;;;;;;;2.50;2.30;;;;;;;;;;5021500;28;20542;-67
2022/06/29 03:17:37;;;;;;;3.40;2.53;;;;;;;;;;5021952;28;20439;-68
2022/06/29 03:20:05;;;;;;;2.40;2.30;;;;;;;;;;5019271;28;20532;-68
2022/06/29 03:22:34;;;;;;;2.50;2.20;;;;;;;;;;5021473;28;20427;-68
2022/06/29 03:25:01;;;;;;;3.20;2.20;;;;;;;;;;5020321;28;20792;-68
2022/06/29 03:27:28;;;;;;;2.70;2.50;;;;;;;;;;5014393;28;20450;-68
2022/06/29 03:29:55;;;;;;;2.65;2.45;;;;;;;;;;5020962;28;20900;-68
2022/06/29 03:32:22;;;;;;;2.67;2.47;;;;;;;;;;5020090;28;20434;-68
2022/06/29 03:34:49;;;;;;;2.42;2.22;;;;;;;;;;5021266;28;20438;-68
2022/06/29 03:37:16;;;;;;;3.13;2.40;;;;;;;;;;5021782;28;20482;-67
2022/06/29 03:39:45;;;;;;;2.80;2.60;;;;;;;;;;5019791;28;20446;-67
2022/06/29 03:42:12;;;;;;;3.35;2.28;;;;;;;;;;5018691;28;20430;-67
2022/06/29 03:44:39;;;;;;;4.45;2.50;;;;;;;;;;5020465;28;20449;-67
2022/06/29 03:47:07;;;;;;;2.72;2.50;;;;;;;;;;5020219;28;20431;-67
2022/06/29 03:49:35;;;;;;;2.92;2.70;;;;;;;;;;5020925;28;20923;-67
2022/06/29 03:52:02;;;;;;;3.10;2.50;;;;;;;;;;5020917;28;21028;-68
2022/06/29 03:54:29;;;;;;;2.97;2.50;;;;;;;;;;5020623;28;20543;-68
2022/06/29 03:56:57;;;;;;;3.40;2.70;;;;;;;;;;5021480;28;20439;-67
2022/06/29 03:59:24;;;;;;;2.70;2.50;;;;;;;;;;5020741;28;20939;-69
2022/06/29 04:01:51;;;;;;;4.13;2.60;;;;;;;;;;5019483;28;20564;-67
2022/06/29 04:04:18;;;;;;;3.05;2.70;;;;;;;;;;5020623;28;20527;-68
2022/06/29 04:06:46;;;;;;;3.70;2.80;;;;;;;;;;5018517;28;20538;-68
2022/06/29 04:09:13;;;;;;;2.70;2.50;;;;;;;;;;5016602;28;20439;-69
2022/06/29 04:11:54;;;;;;;5.00;2.80;;;;;;;;;;5017333;28;20437;-68
2022/06/29 04:14:23;;;;;;;4.13;2.50;;;;;;;;;;5011774;28;20827;-68
2022/06/29 04:16:50;;;;;;;3.70;2.45;;;;;;;;;;5017579;28;20530;-68
2022/06/29 04:19:17;;;;;;;2.83;2.50;;;;;;;;;;5018950;28;20991;-68
2022/06/29 04:21:44;;;;;;;3.03;2.70;;;;;;;;;;5017038;28;20435;-68
2022/06/29 04:24:11;;;;;;;3.85;2.72;;;;;;;;;;5019162;28;20446;-68
2022/06/29 04:26:39;;;;;;;3.20;2.38;;;;;;;;;;5019080;28;20468;-69
2022/06/29 04:29:06;;;;;;;6.97;2.80;;;;;;;;;;5020568;28;20445;-68
2022/06/29 04:31:35;;;;;;;3.53;2.15;;;;;;;;;;5019159;28;20441;-68
2022/06/29 04:34:02;;;;;;;3.67;2.70;;;;;;;;;;5019643;28;20438;-68
2022/06/29 04:36:29;;;;;;;5.20;2.60;;;;;;;;;;5018505;28;20457;-68
2022/06/29 04:38:56;;;;;;;3.28;2.30;;;;;;;;;;5016749;28;20806;-68
2022/06/29 04:41:24;;;;;;;3.10;2.60;;;;;;;;;;5011457;28;20911;-67
2022/06/29 04:43:51;;;;;;;3.90;2.50;;;;;;;;;;5010962;28;21242;-71
2022/06/29 04:46:22;;;;;;;4.90;2.75;;;;;;;;;;5016128;28;20506;-71
2022/06/29 04:48:53;;;;;;;2.90;2.58;;;;;;;;;;5012359;28;20437;-68
2022/06/29 04:51:20;;;;;;;3.13;2.40;;;;;;;;;;5019878;28;20561;-71
2022/06/29 04:53:47;;;;;;;3.67;2.90;;;;;;;;;;5018736;28;20897;-72
2022/06/29 04:56:15;;;;;;;3.42;2.40;;;;;;;;;;5015258;28;20913;-72
2022/06/29 04:58:42;;;;;;;2.78;2.30;;;;;;;;;;5019979;28;20423;-70
2022/06/29 05:01:09;;;;;;;4.93;2.58;;;;;;;;;;5011861;28;20435;-70
2022/06/29 05:03:37;;;;;;;2.50;2.30;;;;;;;;;;5017006;28;20774;-70
2022/06/29 05:06:05;;;;;;;3.60;2.90;;;;;;;;;;5018045;28;20431;-70
2022/06/29 05:08:32;;;;;;;3.38;2.83;;;;;;;;;;5012603;28;20443;-72
2022/06/29 05:10:59;;;;;;;3.27;2.97;;;;;;;;;;5017406;28;20441;-68
2022/06/29 05:13:27;;;;;;;4.00;3.38;;;;;;;;;;5017016;28;20461;-70
2022/06/29 05:15:54;;;;;;;3.30;3.00;;;;;;;;;;5014880;28;20428;-68
2022/06/29 05:18:21;;;;;;;4.80;3.70;;;;;;;;;;5016000;28;20438;-70
2022/06/29 05:20:48;;;;;;;4.80;3.30;;;;;;;;;;5018797;28;20964;-69
2022/06/29 05:23:16;;;;;;;4.43;3.72;;;;;;;;;;5019648;28;20438;-66
2022/06/29 05:25:44;;;;;;;4.40;3.75;;;;;;;;;;5019273;28;21138;-67
2022/06/29 05:28:11;;;;;;;4.10;3.40;;;;;;;;;;5021854;28;20849;-67
2022/06/29 05:30:39;;;;;;;3.50;3.20;;;;;;;;;;5017694;28;20842;-67
2022/06/29 05:33:06;;;;;;;3.83;3.50;;;;;;;;;;5022578;28;20440;-66
2022/06/29 05:35:34;;;;;;;3.10;2.80;;;;;;;;;;5023180;28;20522;-69
2022/06/29 05:38:01;;;;;;;3.63;3.00;;;;;;;;;;5021884;28;20453;-67
2022/06/29 05:40:31;;;;;;;3.20;2.90;;;;;;;;;;5023733;28;20556;-67
2022/06/29 05:42:58;;;;;;;3.08;2.50;;;;;;;;;;5021643;28;20484;-68
2022/06/29 05:45:25;;;;;;;3.70;2.83;;;;;;;;;;5010075;28;20446;-67
2022/06/29 05:47:53;;;;;;;3.13;2.88;;;;;;;;;;5014260;28;21544;-67
2022/06/29 05:50:20;;;;;;;3.50;3.20;;;;;;;;;;5012500;28;21052;-69
2022/06/29 05:52:48;;;;;;;4.57;3.40;;;;;;;;;;5021434;28;20418;-69
2022/06/29 05:55:15;;;;;;;3.80;3.50;;;;;;;;;;5022381;28;20439;-70
2022/06/29 05:57:43;;;;;;;4.40;4.00;;;;;;;;;;5018658;28;20451;-68
2022/06/29 06:00:11;;;;;;;4.18;3.10;;;;;;;;;;5016996;28;20452;-71
2022/06/29 06:02:38;;;;;;;3.28;2.97;;;;;;;;;;5017195;28;20441;-69
2022/06/29 06:05:06;;;;;;;3.08;2.60;;;;;;;;;;5020617;28;20549;-69
2022/06/29 06:07:33;;;;;;;3.30;2.92;;;;;;;;;;5023609;28;20434;-69
2022/06/29 06:10:00;;;;;;;3.55;3.25;;;;;;;;;;5021946;28;20548;-71
2022/06/29 06:12:30;;;;;;;3.47;3.10;;;;;;;;;;5018183;28;20538;-71
2022/06/29 06:15:00;;;;;;;7.15;3.35;;;;;;;;;;5020838;28;20450;-71
2022/06/29 06:17:27;;;;;;;3.20;3.00;;;;;;;;;;5020172;28;20446;-70
2022/06/29 06:19:54;;;;;;;3.53;3.23;;;;;;;;;;5025717;28;20483;-71
2022/06/29 06:22:21;;;;;;;5.10;3.15;;;;;;;;;;5023886;28;20434;-71
2022/06/29 06:24:49;;;;;;;3.63;3.33;;;;;;;;;;5016811;28;20889;-71
2022/06/29 06:27:16;;;;;;;4.60;3.50;;;;;;;;;;5023049;28;20411;-71
2022/06/29 06:29:44;;;;;;;4.00;2.97;;;;;;;;;;5023774;28;20869;-70
2022/06/29 06:32:12;;;;;;;4.00;3.20;;;;;;;;;;5021937;28;20924;-71
2022/06/29 06:34:40;;;;;;;4.28;3.40;;;;;;;;;;5015941;28;20951;-71
2022/06/29 06:37:07;;;;;;;3.40;2.92;;;;;;;;;;5020815;28;20457;-77
2022/06/29 06:39:34;;;;;;;3.50;3.10;;;;;;;;;;5019160;28;20536;-76
2022/06/29 06:42:02;;;;;;;4.43;3.10;;;;;;;;;;5021546;28;20464;-77
2022/06/29 06:44:29;;;;;;;3.65;2.47;;;;;;;;;;5024749;28;20472;-76
2022/06/29 06:46:56;;;;;;;3.72;2.90;;;;;;;;;;5019432;28;20435;-76
2022/06/29 06:49:25;;;;;;;3.08;2.60;;;;;;;;;;5022231;28;20444;-76
2022/06/29 06:51:52;;;;;;;3.30;2.60;;;;;;;;;;5024171;28;20519;-76
2022/06/29 06:54:19;;;;;;;3.60;2.55;;;;;;;;;;5024729;28;20425;-76
2022/06/29 06:56:47;;;;;;;3.45;2.33;;;;;;;;;;5025421;28;20423;-76
2022/06/29 06:59:14;;;;;;;3.80;2.30;;;;;;;;;;5024309;28;20445;-76
2022/06/29 07:01:41;;;;;;;3.00;2.70;;;;;;;;;;5023585;28;20442;-76
2022/06/29 07:04:08;;;;;;;2.60;2.40;;;;;;;;;;5021598;28;20454;-76
2022/06/29 07:06:36;;;;;;;3.70;3.25;;;;;;;;;;5018874;28;20459;-77
2022/06/29 07:09:04;;;;;;;4.70;3.40;;;;;;;;;;5023404;28;20426;-76
2022/06/29 07:11:31;;;;;;;4.05;3.30;;;;;;;;;;5021544;28;20444;-77
2022/06/29 07:13:59;;;;;;;4.70;3.85;;;;;;;;;;5025086;28;20415;-76
2022/06/29 07:16:26;;;;;;;3.42;3.13;;;;;;;;;;5015813;28;20482;-76
2022/06/29 07:18:54;;;;;;;3.60;3.30;;;;;;;;;;5023662;28;20509;-76
2022/06/29 07:21:21;;;;;;;3.88;3.58;;;;;;;;;;5025576;28;20415;-76
2022/06/29 07:23:49;;;;;;;3.40;3.10;;;;;;;;;;5029694;28;20427;-76
2022/06/29 07:26:16;;;;;;;3.57;3.23;;;;;;;;;;5023270;28;20921;-76
2022/06/29 07:28:44;;;;;;;3.35;3.05;;;;;;;;;;5024721;28;20419;-77
2022/06/29 07:31:11;;;;;;;3.70;3.40;;;;;;;;;;5024313;28;20445;-77
2022/06/29 07:33:38;;;;;;;3.63;3.33;;;;;;;;;;5023925;28;20423;-77
2022/06/29 07:36:05;;;;;;;3.63;3.27;;;;;;;;;;5023489;28;21076;-77
2022/06/29 07:38:32;;;;;;;3.60;3.30;;;;;;;;;;5021275;28;20579;-77
2022/06/29 07:41:01;;;;;;;5.60;3.38;;;;;;;;;;5025725;28;20858;-76
2022/06/29 07:43:28;;;;;;;3.40;3.10;;;;;;;;;;5025274;28;20481;-77
2022/06/29 07:45:57;;;;;;;3.70;3.30;;;;;;;;;;5024561;28;20435;-76
2022/06/29 07:48:24;;;;;;;3.30;3.00;;;;;;;;;;5022870;28;20452;-76
2022/06/29 07:50:51;;;;;;;3.90;2.75;;;;;;;;;;5023155;28;20458;-76
2022/06/29 07:53:18;;;;;;;3.60;2.80;;;;;;;;;;5021419;28;20439;-76
2022/06/29 07:55:46;;;;;;;4.78;3.17;;;;;;;;;;5022485;28;20488;-80
2022/06/29 07:58:15;;;;;;;4.40;3.00;;;;;;;;;;5024572;28;20530;-77
2022/06/29 08:00:42;;;;;;;4.47;3.00;;;;;;;;;;5022544;28;20439;-77
2022/06/29 08:03:10;;;;;;;6.95;2.92;;;;;;;;;;5026446;28;20419;-77
2022/06/29 08:05:37;;;;;;;6.32;3.15;;;;;;;;;;5034807;28;20924;-77
2022/06/29 08:08:06;;;;;;;4.72;4.40;;;;;;;;;;5035870;28;20489;-77
2022/06/29 08:10:33;;;;;;;4.80;4.40;;;;;;;;;;5032641;28;20532;-76
2022/06/29 08:13:01;;;;;;;5.00;4.50;;;;;;;;;;5027087;28;20446;-76
2022/06/29 08:15:30;;;;;;;6.35;5.80;;;;;;;;;;5020345;28;20498;-77
2022/06/29 08:17:57;;;;;;;4.75;4.35;;;;;;;;;;5025536;28;20426;-77
2022/06/29 08:20:25;;;;;;;6.00;4.80;;;;;;;;;;5023437;28;20465;-77
2022/06/29 08:22:52;;;;;;;5.50;5.00;;;;;;;;;;5023786;28;21049;-77
2022/06/29 08:25:19;;;;;;;5.57;5.07;;;;;;;;;;5020992;28;20498;-77
2022/06/29 08:27:52;;;;;;;6.20;5.60;;;;;;;;;;5023651;28;20414;-77
2022/06/29 08:30:19;;;;;;;5.50;4.97;;;;;;;;;;5032369;28;20541;-77
2022/06/29 08:32:47;;;;;;;4.50;4.10;;;;;;;;;;5021004;28;20427;-76
2022/06/29 08:35:16;;;;;;;4.20;3.20;;;;;;;;;;5023611;28;20456;-76
2022/06/29 08:37:43;;;;;;;3.33;3.03;;;;;;;;;;5022906;28;20415;-76
2022/06/29 08:40:11;;;;;;;3.28;3.08;;;;;;;;;;5022539;28;20443;-76
2022/06/29 08:42:38;;;;;;;3.33;3.00;;;;;;;;;;5022399;28;20673;-76
2022/06/29 08:45:06;;;;;;;3.65;2.70;;;;;;;;;;5022630;28;20435;-76
2022/06/29 08:47:33;;;;;;;4.50;2.67;;;;;;;;;;5020791;28;20441;-77
2022/06/29 08:50:03;;;;;;;3.10;2.80;;;;;;;;;;5023107;28;20452;-77
2022/06/29 08:52:31;;;;;;;2.90;2.70;;;;;;;;;;5022306;28;20461;-77
2022/06/29 08:54:58;;;;;;;3.20;2.80;;;;;;;;;;5023302;28;20426;-76
2022/06/29 08:57:25;;;;;;;4.10;2.97;;;;;;;;;;5019432;28;20431;-76
2022/06/29 08:59:54;;;;;;;3.05;2.75;;;;;;;;;;5021867;28;20770;-76
2022/06/29 09:02:22;;;;;;;3.28;2.97;;;;;;;;;;5020956;28;20449;-77
2022/06/29 09:04:49;;;;;;;3.80;3.30;;;;;;;;;;5022885;28;20485;-76
2022/06/29 09:07:17;;;;;;;4.67;3.30;;;;;;;;;;5021544;28;20433;-76
2022/06/29 09:10:01;;;;;;;3.78;3.42;;;;;;;;;;5019676;28;20502;-76
2022/06/29 09:12:28;;;;;;;5.03;4.00;;;;;;;;;;5011085;28;20418;-76
2022/06/29 09:14:55;;;;;;;6.35;4.28;;;;;;;;;;5023489;28;20422;-76
2022/06/29 09:17:23;;;;;;;3.83;3.53;;;;;;;;;;5022528;28;20454;-76
2022/06/29 09:19:53;;;;;;;4.72;4.10;;;;;;;;;;5019778;28;20453;-77
2022/06/29 09:22:21;;;;;;;3.97;3.67;;;;;;;;;;5017848;28;20451;-76
2022/06/29 09:24:49;;;;;;;4.10;3.70;;;;;;;;;;5022061;28;20776;-78
2022/06/29 09:27:16;;;;;;;5.32;4.30;;;;;;;;;;5021906;28;20507;-78
2022/06/29 09:29:44;;;;;;;4.03;3.50;;;;;;;;;;5023166;28;20423;-78
2022/06/29 09:32:15;;;;;;;4.10;3.70;;;;;;;;;;5017354;28;20488;-78
2022/06/29 09:34:43;;;;;;;3.35;3.05;;;;;;;;;;5017861;28;20435;-78
2022/06/29 09:37:12;;;;;;;4.50;3.70;;;;;;;;;;5020531;28;20445;-76
2022/06/29 09:39:41;;;;;;;4.22;3.83;;;;;;;;;;5023538;28;20470;-79
2022/06/29 09:42:09;;;;;;;4.88;3.90;;;;;;;;;;5023159;28;20434;-78
2022/06/29 09:44:36;;;;;;;4.95;4.20;;;;;;;;;;5022850;28;20517;-78
2022/06/29 09:47:05;;;;;;;7.15;4.00;;;;;;;;;;5021186;28;20435;-78
2022/06/29 09:49:34;;;;;;;6.72;3.80;;;;;;;;;;5022480;28;20437;-78
2022/06/29 09:52:01;;;;;;;5.53;3.63;;;;;;;;;;5022956;28;20497;-77
2022/06/29 09:54:32;;;;;;;4.78;4.28;;;;;;;;;;5023376;28;20418;-77
2022/06/29 09:57:01;;;;;;;4.28;3.88;;;;;;;;;;5023374;28;20437;-77
2022/06/29 10:05:04;;;;;;;4.32;3.92;;;;;;;;;;5023339;28;20488;-77
2022/06/29 10:07:31;;;;;;;4.10;3.63;;;;;;;;;;5023321;28;20877;-77
2022/06/29 10:09:59;;;;;;;4.10;3.80;;;;;;;;;;5023514;28;20435;-77
2022/06/29 10:15:24;;;;;;;4.33;3.90;;;;;;;;;;5019671;28;20501;-78
2022/06/29 10:17:55;;;;;;;3.78;3.47;;;;;;;;;;5028776;28;20437;-78
2022/06/29 10:20:29;;;;;;;4.07;3.78;;;;;;;;;;5037710;28;20430;-76
2022/06/29 10:22:56;;;;;;;3.40;3.10;;;;;;;;;;5035582;28;21091;-77
2022/06/29 10:25:27;;;;;;;4.60;3.23;;;;;;;;;;5034989;28;20427;-78
2022/06/29 10:28:18;;;;;;;3.33;3.03;;;;;;;;;;5030893;28;20434;-78
2022/06/29 10:30:46;;;;;;;3.30;3.00;;;;;;;;;;5023837;28;20498;-78
2022/06/29 10:33:31;;;;;;;3.97;2.83;;;;;;;;;;5045981;23;20451;-70
2022/06/29 10:36:01;;;;;;;2.72;2.35;;;;;;;;;;5033847;28;20434;-72
2022/06/29 10:38:31;;;;;;;2.85;2.40;;;;;;;;;;5027735;28;20439;-71
2022/06/29 10:41:08;;;;;;;2.72;2.50;;;;;;;;;;5035661;28;21150;-71
2022/06/29 10:43:38;;;;;;;2.42;2.30;;;;;;;;;;5030302;28;20936;-71
2022/06/29 10:46:05;;;;;;;2.40;2.20;;;;;;;;;;5030241;28;20965;-71
2022/06/29 10:48:33;;;;;;;2.20;2.10;;;;;;;;;;5031015;28;20499;-72
2022/06/29 10:51:00;;;;;;;2.00;1.90;;;;;;;;;;5030491;28;20497;-72
2022/06/29 10:53:27;;;;;;;3.30;2.30;;;;;;;;;;5023908;28;20436;-72
2022/06/29 10:55:56;;;;;;;4.18;2.10;;;;;;;;;;5030076;28;20449;-71
2022/06/29 10:58:23;;;;;;;2.45;2.10;;;;;;;;;;5031354;28;20469;-72
2022/06/29 11:00:53;;;;;;;1.80;1.70;;;;;;;;;;5030790;28;20506;-71
2022/06/29 11:03:22;;;;;;;2.30;2.10;;;;;;;;;;5025565;28;20988;-71
2022/06/29 11:15:39;;;;;;;2.30;2.10;;;;;;;;;;5045840;28;20774;-70
2022/06/29 11:16:56;;;;;;;2.00;1.60;;;;;;;;;;5029920;28;20435;-72
2022/06/29 11:19:28;;;;;;;2.20;1.95;;;;;;;;;;5031374;28;20459;-72
2022/06/29 11:22:07;;;;;;;3.08;1.90;;;;;;;;;;5031689;28;20431;-71
2022/06/29 11:24:50;;;;;;;1.90;1.70;;;;;;;;;;5030581;28;20437;-71
2022/06/29 11:27:29;;;;;;;2.07;1.80;;;;;;;;;;5027065;28;20431;-71
2022/06/29 11:29:56;;;;;;;2.22;1.70;;;;;;;;;;5030046;28;20897;-71
2022/06/29 11:32:34;;;;;;;3.30;2.08;;;;;;;;;;5030115;28;20518;-72
2022/06/29 11:35:01;;;;;;;2.30;1.90;;;;;;;;;;5028534;28;20488;-72
2022/06/29 11:37:28;;;;;;;2.40;1.70;;;;;;;;;;5030768;28;20430;-71
2022/06/29 11:39:55;;;;;;;2.03;1.40;;;;;;;;;;5030559;28;20423;-71
2022/06/29 11:45:09;;;;;;;3.20;1.90;;;;;;;;;;5032181;28;20426;-72
2022/06/29 11:47:37;;;;;;;1.95;1.70;;;;;;;;;;5036794;28;20464;-72
2022/06/29 11:50:13;;;;;;;2.35;1.88;;;;;;;;;;5041843;28;20917;-71
2022/06/29 11:52:41;;;;;;;1.90;1.80;;;;;;;;;;5028810;28;20445;-71
2022/06/29 11:55:08;;;;;;;1.80;1.70;;;;;;;;;;5030337;28;20455;-71
2022/06/29 11:57:35;;;;;;;2.00;1.77;;;;;;;;;;5034559;28;20423;-70
2022/06/29 12:00:06;;;;;;;3.75;2.20;;;;;;;;;;5020202;28;20437;-70
2022/06/29 12:02:34;;;;;;;2.10;2.00;;;;;;;;;;5026365;28;20435;-72
2022/06/29 12:05:03;;;;;;;3.63;2.08;;;;;;;;;;5027102;28;20462;-72
2022/06/29 12:07:30;;;;;;;2.70;2.08;;;;;;;;;;5038741;28;20426;-73
2022/06/29 12:09:59;;;;;;;2.20;1.90;;;;;;;;;;5039138;28;20427;-71
2022/06/29 12:12:26;;;;;;;2.50;2.00;;;;;;;;;;5037796;28;20415;-74
2022/06/29 12:14:53;;;;;;;2.40;1.90;;;;;;;;;;5033337;28;20427;-72
2022/06/29 12:17:20;;;;;;;1.88;1.70;;;;;;;;;;5027894;28;20498;-72
2022/06/29 12:19:48;;;;;;;1.90;1.80;;;;;;;;;;5028101;28;20439;-71
2022/06/29 12:22:16;;;;;;;1.70;1.60;;;;;;;;;;5030233;28;20442;-71
2022/06/29 12:24:43;;;;;;;2.25;1.65;;;;;;;;;;5030224;28;20492;-70
2022/06/29 12:27:11;;;;;;;2.40;1.80;;;;;;;;;;5029870;28;20793;-71
2022/06/29 12:29:38;;;;;;;1.88;1.67;;;;;;;;;;5025400;28;20442;-71
2022/06/29 12:32:05;;;;;;;2.90;1.80;;;;;;;;;;5030426;28;20437;-71
2022/06/29 12:34:32;;;;;;;2.53;1.80;;;;;;;;;;5030872;28;20423;-74
2022/06/29 12:37:00;;;;;;;2.10;1.70;;;;;;;;;;5023709;28;20429;-71
2022/06/29 12:39:28;;;;;;;2.25;1.77;;;;;;;;;;5033488;28;20817;-72
2022/06/29 12:41:55;;;;;;;2.63;1.70;;;;;;;;;;5031185;28;20418;-72
2022/06/29 12:44:22;;;;;;;2.70;1.80;;;;;;;;;;5030589;28;20427;-72
2022/06/29 12:46:50;;;;;;;2.10;1.80;;;;;;;;;;5033014;28;20439;-74
2022/06/29 12:49:17;;;;;;;1.70;1.60;;;;;;;;;;5032241;28;20501;-73
2022/06/29 12:51:44;;;;;;;2.78;1.90;;;;;;;;;;5038159;28;20551;-73
2022/06/29 12:54:11;;;;;;;1.98;1.60;;;;;;;;;;5023503;28;20494;-71
2022/06/29 12:56:40;;;;;;;3.20;1.70;;;;;;;;;;5030225;28;20411;-71
2022/06/29 12:59:07;;;;;;;1.85;1.52;;;;;;;;;;5030315;28;20435;-71
2022/06/29 13:01:35;;;;;;;1.70;1.50;;;;;;;;;;5031960;28;20457;-73
2022/06/29 13:04:02;;;;;;;2.20;1.70;;;;;;;;;;5025917;28;20708;-72
2022/06/29 13:06:29;;;;;;;2.88;1.90;;;;;;;;;;5027400;28;20431;-72
2022/06/29 13:08:56;;;;;;;1.90;1.80;;;;;;;;;;5028871;28;20415;-71
2022/06/29 13:11:23;;;;;;;2.15;1.95;;;;;;;;;;5028600;28;20426;-70
2022/06/29 13:13:52;;;;;;;2.15;1.70;;;;;;;;;;5026710;28;20797;-71
2022/06/29 13:16:19;;;;;;;3.70;1.80;;;;;;;;;;5018483;28;20511;-73
2022/06/29 13:18:46;;;;;;;1.80;1.70;;;;;;;;;;5024072;28;20520;-72
2022/06/29 13:21:13;;;;;;;1.80;1.70;;;;;;;;;;5027920;28;20480;-72
2022/06/29 13:23:41;;;;;;;2.10;1.90;;;;;;;;;;5026730;28;20437;-74
2022/06/29 13:26:08;;;;;;;1.95;1.80;;;;;;;;;;5016017;28;20452;-73
2022/06/29 13:28:38;;;;;;;2.20;1.90;;;;;;;;;;5025439;28;20427;-73
2022/06/29 13:31:07;;;;;;;1.80;1.70;;;;;;;;;;5021883;28;20438;-71
2022/06/29 13:33:34;;;;;;;2.30;2.10;;;;;;;;;;5028157;28;20747;-71
2022/06/29 13:36:01;;;;;;;2.70;1.90;;;;;;;;;;5024052;28;20431;-71
2022/06/29 13:38:28;;;;;;;1.88;1.77;;;;;;;;;;5023871;28;20419;-70
2022/06/29 13:40:55;;;;;;;2.00;1.90;;;;;;;;;;5026303;28;20932;-73
2022/06/29 13:43:22;;;;;;;1.85;1.75;;;;;;;;;;5023636;28;20412;-72
2022/06/29 13:45:49;;;;;;;1.92;1.83;;;;;;;;;;5037919;28;20425;-72
2022/06/29 13:48:18;;;;;;;2.17;1.90;;;;;;;;;;5025912;28;20440;-72
2022/06/29 13:50:45;;;;;;;1.90;1.80;;;;;;;;;;5026728;28;20443;-70
2022/06/29 13:53:13;;;;;;;2.10;2.00;;;;;;;;;;5024841;28;21016;-72
2022/06/29 13:55:40;;;;;;;2.58;1.90;;;;;;;;;;5031846;28;20925;-72
2022/06/29 13:58:07;;;;;;;2.50;1.92;;;;;;;;;;5037105;28;20429;-72
2022/06/29 14:00:35;;;;;;;2.25;1.80;;;;;;;;;;5032261;28;20426;-70
2022/06/29 14:03:02;;;;;;;1.80;1.70;;;;;;;;;;5026392;28;20427;-72
2022/06/29 14:05:31;;;;;;;1.93;1.80;;;;;;;;;;5056202;28;20425;-72
2022/06/29 14:07:58;;;;;;;2.80;1.60;;;;;;;;;;5035122;28;20446;-71
2022/06/29 14:10:25;;;;;;;2.17;1.60;;;;;;;;;;5044250;28;20430;-71
2022/06/29 14:12:52;;;;;;;1.80;1.70;;;;;;;;;;5034300;28;20465;-72
2022/06/29 14:15:19;;;;;;;1.60;1.50;;;;;;;;;;5032115;28;20893;-72
2022/06/29 14:17:46;;;;;;;1.77;1.67;;;;;;;;;;5039295;28;20443;-70
2022/06/29 14:20:14;;;;;;;2.35;1.60;;;;;;;;;;5029223;28;20457;-71
2022/06/29 14:22:42;;;;;;;2.20;1.40;;;;;;;;;;5036059;28;20427;-71
2022/06/29 14:25:10;;;;;;;1.73;1.52;;;;;;;;;;5029200;28;20431;-70
2022/06/29 14:27:37;;;;;;;1.65;1.40;;;;;;;;;;5027340;28;20633;-72
2022/06/29 14:30:05;;;;;;;2.20;1.50;;;;;;;;;;5031084;28;20411;-72
2022/06/29 14:32:32;;;;;;;1.90;1.40;;;;;;;;;;5028732;28;20446;-70
2022/06/29 14:34:59;;;;;;;1.20;1.10;;;;;;;;;;5031601;28;20422;-71
2022/06/29 14:37:26;;;;;;;1.50;1.30;;;;;;;;;;5030645;28;20442;-71
2022/06/29 14:39:55;;;;;;;1.40;1.30;;;;;;;;;;5030971;28;20462;-72
2022/06/29 14:42:24;;;;;;;1.42;1.20;;;;;;;;;;5027792;28;20449;-71
2022/06/29 14:44:51;;;;;;;1.60;1.50;;;;;;;;;;5024250;28;20435;-73
2022/06/29 14:47:18;;;;;;;1.70;1.40;;;;;;;;;;5031317;28;20427;-71
2022/06/29 14:49:45;;;;;;;2.73;1.40;;;;;;;;;;5029132;28;20437;-70
2022/06/29 14:52:13;;;;;;;1.57;1.47;;;;;;;;;;5023472;28;20518;-71
2022/06/29 14:54:40;;;;;;;1.50;1.40;;;;;;;;;;5028005;28;20441;-70
2022/06/29 14:57:08;;;;;;;1.27;1.20;;;;;;;;;;5027014;28;20723;-70
2022/06/29 14:59:35;;;;;;;3.30;1.40;;;;;;;;;;5024677;28;20864;-70
2022/06/29 15:02:02;;;;;;;1.60;1.50;;;;;;;;;;5029196;28;20445;-71
2022/06/29 15:04:30;;;;;;;1.20;1.20;;;;;;;;;;5028248;28;20868;-70
2022/06/29 15:06:57;;;;;;;1.33;1.20;;;;;;;;;;5029734;28;20430;-71
2022/06/29 15:09:24;;;;;;;1.85;1.42;;;;;;;;;;5029385;28;20944;-72